Clear Creek, Nevada
Current Conditions -  °F | °C
As of 6:55 AM on Saturday 25 Oct 2014 (Local Time) from KCXP Reporting Station
Clear Clear  
Wind Chill: 55°   Ceiling: Unl
Heat Index: 55°   Visibility: 10mi
Dew Point: 23°   Wind: 0mph
Humidity: 28%   Direction: NA
Pressure: 29.94"   Gusts: NA
Location:  39.1386°N, 119.659°W
Report Text: KCXP 251355Z AUTO 00000KT 10SM CLR 13/M05 A2994 RMK AO2
Loading
Personal Weather Stations






























Interactive Weather Map
Tropical Storm Tracking
New forecast layout! Learn more

10-Day Weather Forecast

Advertisements
Track Severe Weather on mobile